Renee' T. Whatley — WDD5243 — position and weather

sailwx.info

Track history (hours):
 
Tides and Currents Weather Stations Pressure Air Temp Water Temp Dewpoint Dewpoint Depression Visibility Wind Speed Wind Dir Waves Ship Positions

Renee' T. Whatley

Owner: Terral RiverService, Inc., Lake Providence, LA. More information available from US FCC via Universal Licensing System and Coast Guard Vessel Documentation Center.

Last reported at 2015-Dec-02 19:29 UTC. Time now 2016-Feb-12 01:25 UTC.
Position N 30°12' W 093°17'.
Warning: this ship's position is months out of date.

Length 11 m.

Type: Tug. MMSI: 367155550.

Date/timePositionNaut miles runAvg speedWind from/ knotsBaromVisibWave heightAir tempDewpointWater temp
2015-Dec-02 19:29N 30°12' W 093°17'3 0.4
2015-Dec-02 13:24N 30°14' W 093°15'0 0.0
2015-Dec-02 12:24N 30°14' W 093°15'0 0.0
2015-Dec-02 11:18N 30°14' W 093°15'0 0.0
2015-Dec-02 10:32N 30°14' W 093°15'0 0.0
2015-Dec-02 09:30N 30°14' W 093°15'0 0.0
2015-Dec-02 08:32N 30°14' W 093°15'0 0.0
2015-Dec-02 07:32N 30°14' W 093°15'1 1.1
2015-Dec-02 06:32N 30°13' W 093°16'7 1.4
2015-Dec-02 01:19N 30°06' W 093°18'8 1.0
2015-Dec-01 17:09N 30°14' W 093°15'0 0.0
2015-Dec-01 05:32N 30°14' W 093°15'0 0.0
2015-Dec-01 04:32N 30°14' W 093°15'0 0.0
2015-Dec-01 03:32N 30°14' W 093°15'0 0.0
2015-Dec-01 02:32N 30°14' W 093°15'0 0.0
2015-Dec-01 01:32N 30°14' W 093°15'0 0.1
2015-Dec-01 00:32N 30°14' W 093°15'0 0.1
2015-Nov-30 23:32N 30°14' W 093°15'0 0.0
2015-Nov-30 22:32N 30°14' W 093°15'0 0.0
2015-Nov-30 21:32N 30°14' W 093°15'0 0.0
2015-Nov-30 20:32N 30°14' W 093°15'0 0.0
2015-Nov-30 19:32N 30°14' W 093°15'0 0.1
2015-Nov-30 18:28N 30°14' W 093°15'0 0.1
2015-Nov-30 17:25N 30°14' W 093°15'0 0.0
2015-Nov-30 15:08N 30°14' W 093°15'0 0.0
2015-Nov-30 13:11N 30°14' W 093°15'0 0.0
2015-Nov-30 12:33N 30°14' W 093°15'0 0.0
2015-Nov-30 09:27N 30°14' W 093°15'0 0.0
2015-Nov-30 08:20N 30°14' W 093°15'0 0.0
2015-Nov-30 07:33N 30°14' W 093°15'0 0.0
2015-Nov-30 06:33N 30°14' W 093°15'0 0.0
2015-Nov-30 05:33N 30°14' W 093°15'0 0.0
2015-Nov-30 04:33N 30°14' W 093°15'0 0.0
2015-Nov-30 03:33N 30°14' W 093°15'0 0.0
2015-Nov-30 02:31N 30°14' W 093°15'0 0.0
2015-Nov-30 01:33N 30°14' W 093°15'0 0.1
2015-Nov-30 00:29N 30°14' W 093°15'1 0.7
2015-Nov-29 23:31N 30°13' W 093°14'4 3.5
2015-Nov-29 22:29N 30°11' W 093°18'4 4.1
2015-Nov-29 21:31N 30°08' W 093°20'2 2.1
2015-Nov-29 20:33N 30°06' W 093°19'2 1.6
2015-Nov-29 19:29N 30°05' W 093°17'2 2.1
2015-Nov-29 18:33N 30°04' W 093°16'0 0.0
2015-Nov-29 17:31N 30°04' W 093°16'0 0.0
2015-Nov-29 16:33N 30°04' W 093°16'0 0.0
2015-Nov-29 15:33N 30°04' W 093°16'0 0.0
2015-Nov-29 14:33N 30°04' W 093°16'0 0.0
2015-Nov-29 13:33N 30°04' W 093°16'0 0.0
2015-Nov-29 12:33N 30°04' W 093°16'0 0.0
2015-Nov-29 11:33N 30°04' W 093°16'0 0.0
2015-Nov-29 10:33N 30°04' W 093°16'0 0.0
2015-Nov-29 09:33N 30°04' W 093°16'0 0.4
2015-Nov-29 08:33N 30°03' W 093°16'3 3.1
2015-Nov-29 07:33N 30°01' W 093°14'2 2.5
2015-Nov-29 06:33N 29°59' W 093°12'4 3.9
2015-Nov-29 05:33N 29°56' W 093°09'19 3.8
2015-Nov-29 00:31N 29°58' W 092°47'4 3.8
2015-Nov-28 23:30N 29°57' W 092°43'  
2015-Nov-25 18:33N 29°34' W 090°56'6 6.3
2015-Nov-25 17:33N 29°32' W 090°49'5 4.7
2015-Nov-25 16:33N 29°34' W 090°44'1 1.4
2015-Nov-25 15:33N 29°35' W 090°43'0 0.0
2015-Nov-25 14:33N 29°35' W 090°43'0 0.0
2015-Nov-25 13:33N 29°35' W 090°43'2 2.3
2015-Nov-25 12:33N 29°37' W 090°42'2 1.9
2015-Nov-25 11:33N 29°36' W 090°40'0 0.0
2015-Nov-25 10:33N 29°36' W 090°40'0 0.0
2015-Nov-25 09:33N 29°36' W 090°40'0 0.0
2015-Nov-25 08:33N 29°36' W 090°40'0 0.0
2015-Nov-25 07:33N 29°36' W 090°40'0 0.0
2015-Nov-25 06:33N 29°36' W 090°40'0 0.0
2015-Nov-25 05:33N 29°36' W 090°40'0 0.0
2015-Nov-25 04:33N 29°36' W 090°40'0 0.0
2015-Nov-25 03:33N 29°36' W 090°40'0 0.0
2015-Nov-25 02:33N 29°36' W 090°40'0 0.0
2015-Nov-25 01:33N 29°36' W 090°40'0 0.0
2015-Nov-25 00:33N 29°36' W 090°40'0 0.0
2015-Nov-24 23:33N 29°36' W 090°40'0 0.0
2015-Nov-24 22:33N 29°36' W 090°40'0 0.0
2015-Nov-24 21:33N 29°36' W 090°40'0 0.0
2015-Nov-24 20:33N 29°36' W 090°40'0 0.1
2015-Nov-24 19:33N 29°36' W 090°40'0 0.0
2015-Nov-24 18:33N 29°36' W 090°40'0 0.1
2015-Nov-24 17:33N 29°36' W 090°40'0 0.0
2015-Nov-24 16:33N 29°36' W 090°40'0 0.0
2015-Nov-24 15:33N 29°36' W 090°40'0 0.0
2015-Nov-24 14:33N 29°36' W 090°40'0 0.0
2015-Nov-24 13:33N 29°36' W 090°40'0 0.0
2015-Nov-24 12:33N 29°36' W 090°40'0 0.0
2015-Nov-24 11:33N 29°36' W 090°40'0 0.0
2015-Nov-24 10:33N 29°36' W 090°40'0 0.0
2015-Nov-24 09:33N 29°36' W 090°40'0 0.0
2015-Nov-24 08:33N 29°36' W 090°40'0 0.0
2015-Nov-24 07:33N 29°36' W 090°40'0 0.0
2015-Nov-24 06:33N 29°36' W 090°40'0 0.0
2015-Nov-24 05:33N 29°36' W 090°40'0 0.0
2015-Nov-24 04:33N 29°36' W 090°40'0 0.0
2015-Nov-24 03:33N 29°36' W 090°40'0 0.0
2015-Nov-24 02:33N 29°36' W 090°40'0 0.0
2015-Nov-24 01:33N 29°36' W 090°40'0 0.0
2015-Nov-24 00:33N 29°36' W 090°40'0 0.4
2015-Nov-23 23:33N 29°36' W 090°41'0 0.4
2015-Nov-23 22:33N 29°36' W 090°40'0 0.0
2015-Nov-23 21:33N 29°36' W 090°40'0 0.0
2015-Nov-23 20:33N 29°36' W 090°40'0 0.0
2015-Nov-23 19:33N 29°36' W 090°40'0 0.4
2015-Nov-23 18:33N 29°36' W 090°41'0 0.0
2015-Nov-23 17:33N 29°36' W 090°41'0 0.0
2015-Nov-23 16:33N 29°36' W 090°41'0 0.1
2015-Nov-23 15:33N 29°36' W 090°40'0 0.0
2015-Nov-23 14:33N 29°36' W 090°40'0 0.0
2015-Nov-23 13:33N 29°36' W 090°40'0 0.0
2015-Nov-23 12:33N 29°36' W 090°40'0 0.0
2015-Nov-23 11:34N 29°36' W 090°40'0 0.0
2015-Nov-23 10:34N 29°36' W 090°40'0 0.0
2015-Nov-23 09:33N 29°36' W 090°40'0 0.0
2015-Nov-23 08:33N 29°36' W 090°40'0 0.0
2015-Nov-23 07:34N 29°36' W 090°40'0 0.0
2015-Nov-23 06:33N 29°36' W 090°40'0 0.0
2015-Nov-23 05:34N 29°36' W 090°40'0 0.0
2015-Nov-23 04:34N 29°36' W 090°40'0 0.0
2015-Nov-23 03:34N 29°36' W 090°40'0 0.0
2015-Nov-23 02:33N 29°36' W 090°40'0 0.0
2015-Nov-23 01:33N 29°36' W 090°40'0 0.1
2015-Nov-23 00:33N 29°36' W 090°41'0 0.1
2015-Nov-22 23:33N 29°36' W 090°41'1 0.5
2015-Nov-22 22:34N 29°36' W 090°41'2 2.1
2015-Nov-22 21:33N 29°35' W 090°43'2 1.7
2015-Nov-22 20:33N 29°34' W 090°44'0 0.1
2015-Nov-22 19:33N 29°34' W 090°44'  
Track history (hours):
 
Tides and Currents Weather Stations Pressure Air Temp Water Temp Dewpoint Dewpoint Depression Visibility Wind Speed Wind Dir Waves Ship Positions

Renee' T. Whatley

Owner: Terral RiverService, Inc., Lake Providence, LA. More information available from US FCC via Universal Licensing System and Coast Guard Vessel Documentation Center.

Last reported at 2015-Dec-02 19:29 UTC. Time now 2016-Feb-12 01:25 UTC.
Position N 30°12' W 093°17'.
Warning: this ship's position is months out of date.

Length 11 m.

Type: Tug. MMSI: 367155550.

Date/timePositionNaut miles runAvg speedWind from/ knotsBaromVisibWave heightAir tempDewpointWater temp
2015-Dec-02 19:29N 30°12' W 093°17'3 0.4
2015-Dec-02 13:24N 30°14' W 093°15'0 0.0
2015-Dec-02 12:24N 30°14' W 093°15'0 0.0
2015-Dec-02 11:18N 30°14' W 093°15'0 0.0
2015-Dec-02 10:32N 30°14' W 093°15'0 0.0
2015-Dec-02 09:30N 30°14' W 093°15'0 0.0
2015-Dec-02 08:32N 30°14' W 093°15'0 0.0
2015-Dec-02 07:32N 30°14' W 093°15'1 1.1
2015-Dec-02 06:32N 30°13' W 093°16'7 1.4
2015-Dec-02 01:19N 30°06' W 093°18'8 1.0
2015-Dec-01 17:09N 30°14' W 093°15'0 0.0
2015-Dec-01 05:32N 30°14' W 093°15'0 0.0
2015-Dec-01 04:32N 30°14' W 093°15'0 0.0
2015-Dec-01 03:32N 30°14' W 093°15'0 0.0
2015-Dec-01 02:32N 30°14' W 093°15'0 0.0
2015-Dec-01 01:32N 30°14' W 093°15'0 0.1
2015-Dec-01 00:32N 30°14' W 093°15'0 0.1
2015-Nov-30 23:32N 30°14' W 093°15'0 0.0
2015-Nov-30 22:32N 30°14' W 093°15'0 0.0
2015-Nov-30 21:32N 30°14' W 093°15'0 0.0
2015-Nov-30 20:32N 30°14' W 093°15'0 0.0
2015-Nov-30 19:32N 30°14' W 093°15'0 0.1
2015-Nov-30 18:28N 30°14' W 093°15'0 0.1
2015-Nov-30 17:25N 30°14' W 093°15'0 0.0
2015-Nov-30 15:08N 30°14' W 093°15'0 0.0
2015-Nov-30 13:11N 30°14' W 093°15'0 0.0
2015-Nov-30 12:33N 30°14' W 093°15'0 0.0
2015-Nov-30 09:27N 30°14' W 093°15'0 0.0
2015-Nov-30 08:20N 30°14' W 093°15'0 0.0
2015-Nov-30 07:33N 30°14' W 093°15'0 0.0
2015-Nov-30 06:33N 30°14' W 093°15'0 0.0
2015-Nov-30 05:33N 30°14' W 093°15'0 0.0
2015-Nov-30 04:33N 30°14' W 093°15'0 0.0
2015-Nov-30 03:33N 30°14' W 093°15'0 0.0
2015-Nov-30 02:31N 30°14' W 093°15'0 0.0
2015-Nov-30 01:33N 30°14' W 093°15'0 0.1
2015-Nov-30 00:29N 30°14' W 093°15'1 0.7
2015-Nov-29 23:31N 30°13' W 093°14'4 3.5
2015-Nov-29 22:29N 30°11' W 093°18'4 4.1
2015-Nov-29 21:31N 30°08' W 093°20'2 2.1
2015-Nov-29 20:33N 30°06' W 093°19'2 1.6
2015-Nov-29 19:29N 30°05' W 093°17'2 2.1
2015-Nov-29 18:33N 30°04' W 093°16'0 0.0
2015-Nov-29 17:31N 30°04' W 093°16'0 0.0
2015-Nov-29 16:33N 30°04' W 093°16'0 0.0
2015-Nov-29 15:33N 30°04' W 093°16'0 0.0
2015-Nov-29 14:33N 30°04' W 093°16'0 0.0
2015-Nov-29 13:33N 30°04' W 093°16'0 0.0
2015-Nov-29 12:33N 30°04' W 093°16'0 0.0
2015-Nov-29 11:33N 30°04' W 093°16'0 0.0
2015-Nov-29 10:33N 30°04' W 093°16'0 0.0
2015-Nov-29 09:33N 30°04' W 093°16'0 0.4
2015-Nov-29 08:33N 30°03' W 093°16'3 3.1
2015-Nov-29 07:33N 30°01' W 093°14'2 2.5
2015-Nov-29 06:33N 29°59' W 093°12'4 3.9
2015-Nov-29 05:33N 29°56' W 093°09'19 3.8
2015-Nov-29 00:31N 29°58' W 092°47'4 3.8
2015-Nov-28 23:30N 29°57' W 092°43'  
2015-Nov-25 18:33N 29°34' W 090°56'6 6.3
2015-Nov-25 17:33N 29°32' W 090°49'5 4.7
2015-Nov-25 16:33N 29°34' W 090°44'1 1.4
2015-Nov-25 15:33N 29°35' W 090°43'0 0.0
2015-Nov-25 14:33N 29°35' W 090°43'0 0.0
2015-Nov-25 13:33N 29°35' W 090°43'2 2.3
2015-Nov-25 12:33N 29°37' W 090°42'2 1.9
2015-Nov-25 11:33N 29°36' W 090°40'0 0.0
2015-Nov-25 10:33N 29°36' W 090°40'0 0.0
2015-Nov-25 09:33N 29°36' W 090°40'0 0.0
2015-Nov-25 08:33N 29°36' W 090°40'0 0.0
2015-Nov-25 07:33N 29°36' W 090°40'0 0.0
2015-Nov-25 06:33N 29°36' W 090°40'0 0.0
2015-Nov-25 05:33N 29°36' W 090°40'0 0.0
2015-Nov-25 04:33N 29°36' W 090°40'0 0.0
2015-Nov-25 03:33N 29°36' W 090°40'0 0.0
2015-Nov-25 02:33N 29°36' W 090°40'0 0.0
2015-Nov-25 01:33N 29°36' W 090°40'0 0.0
2015-Nov-25 00:33N 29°36' W 090°40'0 0.0
2015-Nov-24 23:33N 29°36' W 090°40'0 0.0
2015-Nov-24 22:33N 29°36' W 090°40'0 0.0
2015-Nov-24 21:33N 29°36' W 090°40'0 0.0
2015-Nov-24 20:33N 29°36' W 090°40'0 0.1
2015-Nov-24 19:33N 29°36' W 090°40'0 0.0
2015-Nov-24 18:33N 29°36' W 090°40'0 0.1
2015-Nov-24 17:33N 29°36' W 090°40'0 0.0
2015-Nov-24 16:33N 29°36' W 090°40'0 0.0
2015-Nov-24 15:33N 29°36' W 090°40'0 0.0
2015-Nov-24 14:33N 29°36' W 090°40'0 0.0
2015-Nov-24 13:33N 29°36' W 090°40'0 0.0
2015-Nov-24 12:33N 29°36' W 090°40'0 0.0
2015-Nov-24 11:33N 29°36' W 090°40'0 0.0
2015-Nov-24 10:33N 29°36' W 090°40'0 0.0
2015-Nov-24 09:33N 29°36' W 090°40'0 0.0
2015-Nov-24 08:33N 29°36' W 090°40'0 0.0
2015-Nov-24 07:33N 29°36' W 090°40'0 0.0
2015-Nov-24 06:33N 29°36' W 090°40'0 0.0
2015-Nov-24 05:33N 29°36' W 090°40'0 0.0
2015-Nov-24 04:33N 29°36' W 090°40'0 0.0
2015-Nov-24 03:33N 29°36' W 090°40'0 0.0
2015-Nov-24 02:33N 29°36' W 090°40'0 0.0
2015-Nov-24 01:33N 29°36' W 090°40'0 0.0
2015-Nov-24 00:33N 29°36' W 090°40'0 0.4
2015-Nov-23 23:33N 29°36' W 090°41'0 0.4
2015-Nov-23 22:33N 29°36' W 090°40'0 0.0
2015-Nov-23 21:33N 29°36' W 090°40'0 0.0
2015-Nov-23 20:33N 29°36' W 090°40'0 0.0
2015-Nov-23 19:33N 29°36' W 090°40'0 0.4
2015-Nov-23 18:33N 29°36' W 090°41'0 0.0
2015-Nov-23 17:33N 29°36' W 090°41'0 0.0
2015-Nov-23 16:33N 29°36' W 090°41'0 0.1
2015-Nov-23 15:33N 29°36' W 090°40'0 0.0
2015-Nov-23 14:33N 29°36' W 090°40'0 0.0
2015-Nov-23 13:33N 29°36' W 090°40'0 0.0
2015-Nov-23 12:33N 29°36' W 090°40'0 0.0
2015-Nov-23 11:34N 29°36' W 090°40'0 0.0
2015-Nov-23 10:34N 29°36' W 090°40'0 0.0
2015-Nov-23 09:33N 29°36' W 090°40'0 0.0
2015-Nov-23 08:33N 29°36' W 090°40'0 0.0
2015-Nov-23 07:34N 29°36' W 090°40'0 0.0
2015-Nov-23 06:33N 29°36' W 090°40'0 0.0
2015-Nov-23 05:34N 29°36' W 090°40'0 0.0
2015-Nov-23 04:34N 29°36' W 090°40'0 0.0
2015-Nov-23 03:34N 29°36' W 090°40'0 0.0
2015-Nov-23 02:33N 29°36' W 090°40'0 0.0
2015-Nov-23 01:33N 29°36' W 090°40'0 0.1
2015-Nov-23 00:33N 29°36' W 090°41'0 0.1
2015-Nov-22 23:33N 29°36' W 090°41'1 0.5
2015-Nov-22 22:34N 29°36' W 090°41'2 2.1
2015-Nov-22 21:33N 29°35' W 090°43'2 1.7
2015-Nov-22 20:33N 29°34' W 090°44'0 0.1
2015-Nov-22 19:33N 29°34' W 090°44'  

Dump ship's entire track history